sensor_id;sensor_type;location;lat;lon;timestamp;temperature;humidity
45645;DHT22;31359;48.784;9.192;2022-07-06T00:02:39;25.00;52.50
45645;DHT22;31359;48.784;9.192;2022-07-06T00:07:41;25.00;52.50
45645;DHT22;31359;48.784;9.192;2022-07-06T00:12:43;25.00;52.50
45645;DHT22;31359;48.784;9.192;2022-07-06T00:17:45;24.90;52.70
45645;DHT22;31359;48.784;9.192;2022-07-06T00:22:46;24.80;52.90
45645;DHT22;31359;48.784;9.192;2022-07-06T00:27:48;24.90;52.90
45645;DHT22;31359;48.784;9.192;2022-07-06T00:32:50;24.90;52.70
45645;DHT22;31359;48.784;9.192;2022-07-06T00:37:52;24.90;52.70
45645;DHT22;31359;48.784;9.192;2022-07-06T00:42:54;25.00;52.60
45645;DHT22;31359;48.784;9.192;2022-07-06T00:47:55;25.00;52.60
45645;DHT22;31359;48.784;9.192;2022-07-06T00:53:03;25.00;52.50
45645;DHT22;31359;48.784;9.192;2022-07-06T00:58:05;25.00;52.50
45645;DHT22;31359;48.784;9.192;2022-07-06T01:03:07;24.90;52.60
45645;DHT22;31359;48.784;9.192;2022-07-06T01:08:09;24.80;52.70
45645;DHT22;31359;48.784;9.192;2022-07-06T01:13:11;24.80;52.90
45645;DHT22;31359;48.784;9.192;2022-07-06T01:18:13;24.80;52.80
45645;DHT22;31359;48.784;9.192;2022-07-06T01:23:15;24.80;52.60
45645;DHT22;31359;48.784;9.192;2022-07-06T01:28:17;24.90;52.60
45645;DHT22;31359;48.784;9.192;2022-07-06T01:33:19;24.90;52.50
45645;DHT22;31359;48.784;9.192;2022-07-06T01:38:20;24.90;53.00
45645;DHT22;31359;48.784;9.192;2022-07-06T01:43:23;24.90;52.50
45645;DHT22;31359;48.784;9.192;2022-07-06T01:48:24;24.90;52.40
45645;DHT22;31359;48.784;9.192;2022-07-06T01:53:26;24.80;52.50
45645;DHT22;31359;48.784;9.192;2022-07-06T01:58:28;24.70;52.70
45645;DHT22;31359;48.784;9.192;2022-07-06T02:03:30;24.70;52.70
45645;DHT22;31359;48.784;9.192;2022-07-06T02:08:33;24.80;52.60
45645;DHT22;31359;48.784;9.192;2022-07-06T02:13:35;24.80;52.50
45645;DHT22;31359;48.784;9.192;2022-07-06T02:18:37;24.80;52.30
45645;DHT22;31359;48.784;9.192;2022-07-06T02:23:39;24.80;52.30
45645;DHT22;31359;48.784;9.192;2022-07-06T02:28:41;24.80;52.20
45645;DHT22;31359;48.784;9.192;2022-07-06T02:33:42;24.80;52.20
45645;DHT22;31359;48.784;9.192;2022-07-06T02:38:44;24.80;52.30
45645;DHT22;31359;48.784;9.192;2022-07-06T02:43:46;24.70;52.30
45645;DHT22;31359;48.784;9.192;2022-07-06T02:48:48;24.60;52.50
45645;DHT22;31359;48.784;9.192;2022-07-06T02:53:49;24.70;52.40
45645;DHT22;31359;48.784;9.192;2022-07-06T02:58:51;24.70;52.30
45645;DHT22;31359;48.784;9.192;2022-07-06T03:03:53;24.70;52.30
45645;DHT22;31359;48.784;9.192;2022-07-06T03:08:54;24.80;52.20
45645;DHT22;31359;48.784;9.192;2022-07-06T03:13:56;24.80;52.10
45645;DHT22;31359;48.784;9.192;2022-07-06T03:18:58;24.80;52.60
45645;DHT22;31359;48.784;9.192;2022-07-06T03:24:00;24.80;52.10
45645;DHT22;31359;48.784;9.192;2022-07-06T03:29:02;24.70;52.20
45645;DHT22;31359;48.784;9.192;2022-07-06T03:34:04;24.60;52.30
45645;DHT22;31359;48.784;9.192;2022-07-06T03:39:06;24.60;53.00
45645;DHT22;31359;48.784;9.192;2022-07-06T03:44:08;24.60;52.30
45645;DHT22;31359;48.784;9.192;2022-07-06T03:49:10;24.60;52.10
45645;DHT22;31359;48.784;9.192;2022-07-06T03:54:11;24.60;52.20
45645;DHT22;31359;48.784;9.192;2022-07-06T03:59:13;24.70;52.10
45645;DHT22;31359;48.784;9.192;2022-07-06T04:04:15;24.70;52.10
45645;DHT22;31359;48.784;9.192;2022-07-06T04:09:17;24.70;52.00
45645;DHT22;31359;48.784;9.192;2022-07-06T04:14:18;24.60;52.10
45645;DHT22;31359;48.784;9.192;2022-07-06T04:19:20;24.60;52.30
45645;DHT22;31359;48.784;9.192;2022-07-06T04:24:22;24.50;52.30
45645;DHT22;31359;48.784;9.192;2022-07-06T04:29:24;24.50;52.40
45645;DHT22;31359;48.784;9.192;2022-07-06T04:34:25;24.60;52.20
45645;DHT22;31359;48.784;9.192;2022-07-06T04:39:27;24.60;52.30
45645;DHT22;31359;48.784;9.192;2022-07-06T04:44:29;24.60;52.10
45645;DHT22;31359;48.784;9.192;2022-07-06T04:49:31;24.60;52.10
45645;DHT22;31359;48.784;9.192;2022-07-06T04:54:32;24.60;52.10
45645;DHT22;31359;48.784;9.192;2022-07-06T04:59:34;24.60;52.20
45645;DHT22;31359;48.784;9.192;2022-07-06T05:04:36;24.60;52.20
45645;DHT22;31359;48.784;9.192;2022-07-06T05:09:38;24.20;49.50
45645;DHT22;31359;48.784;9.192;2022-07-06T05:14:39;24.30;50.30
45645;DHT22;31359;48.784;9.192;2022-07-06T05:19:41;24.30;50.10
45645;DHT22;31359;48.784;9.192;2022-07-06T05:24:43;24.40;49.90
45645;DHT22;31359;48.784;9.192;2022-07-06T05:29:45;24.30;50.20
45645;DHT22;31359;48.784;9.192;2022-07-06T05:34:47;24.40;50.50
45645;DHT22;31359;48.784;9.192;2022-07-06T05:39:51;24.40;50.80
45645;DHT22;31359;48.784;9.192;2022-07-06T05:44:56;24.30;50.60
45645;DHT22;31359;48.784;9.192;2022-07-06T05:49:58;24.30;50.10
45645;DHT22;31359;48.784;9.192;2022-07-06T05:55:15;24.20;50.40
45645;DHT22;31359;48.784;9.192;2022-07-06T06:00:16;24.10;50.80
45645;DHT22;31359;48.784;9.192;2022-07-06T06:05:21;24.20;50.60
45645;DHT22;31359;48.784;9.192;2022-07-06T06:10:25;24.20;50.30
45645;DHT22;31359;48.784;9.192;2022-07-06T06:15:29;24.20;50.30
45645;DHT22;31359;48.784;9.192;2022-07-06T06:20:31;24.20;50.40
45645;DHT22;31359;48.784;9.192;2022-07-06T06:25:38;24.20;50.40
45645;DHT22;31359;48.784;9.192;2022-07-06T06:30:40;24.30;50.40
45645;DHT22;31359;48.784;9.192;2022-07-06T06:35:44;24.20;50.40
45645;DHT22;31359;48.784;9.192;2022-07-06T06:40:46;24.30;50.70
45645;DHT22;31359;48.784;9.192;2022-07-06T06:45:48;24.30;50.60
45645;DHT22;31359;48.784;9.192;2022-07-06T06:50:50;24.20;50.60
45645;DHT22;31359;48.784;9.192;2022-07-06T06:55:51;24.10;50.70
45645;DHT22;31359;48.784;9.192;2022-07-06T07:00:53;24.10;50.70
45645;DHT22;31359;48.784;9.192;2022-07-06T07:05:55;24.20;51.00
45645;DHT22;31359;48.784;9.192;2022-07-06T07:10:56;24.20;50.40
45645;DHT22;31359;48.784;9.192;2022-07-06T07:15:59;24.20;50.40
45645;DHT22;31359;48.784;9.192;2022-07-06T07:21:01;24.30;50.30
45645;DHT22;31359;48.784;9.192;2022-07-06T07:26:03;24.30;50.30
45645;DHT22;31359;48.784;9.192;2022-07-06T07:31:05;24.30;50.30
45645;DHT22;31359;48.784;9.192;2022-07-06T07:36:07;24.30;50.30
45645;DHT22;31359;48.784;9.192;2022-07-06T07:41:09;24.30;50.40
45645;DHT22;31359;48.784;9.192;2022-07-06T07:46:12;24.20;50.30
45645;DHT22;31359;48.784;9.192;2022-07-06T07:51:14;24.20;50.20
45645;DHT22;31359;48.784;9.192;2022-07-06T07:56:16;24.20;50.60
45645;DHT22;31359;48.784;9.192;2022-07-06T08:01:18;24.10;50.80
45645;DHT22;31359;48.784;9.192;2022-07-06T08:06:19;24.00;50.90
45645;DHT22;31359;48.784;9.192;2022-07-06T08:11:21;24.10;50.80
45645;DHT22;31359;48.784;9.192;2022-07-06T08:16:23;24.20;50.70
45645;DHT22;31359;48.784;9.192;2022-07-06T08:21:26;24.20;50.70
45645;DHT22;31359;48.784;9.192;2022-07-06T08:26:28;24.20;50.70
45645;DHT22;31359;48.784;9.192;2022-07-06T08:31:30;24.20;50.70
45645;DHT22;31359;48.784;9.192;2022-07-06T08:36:52;24.20;50.80
45645;DHT22;31359;48.784;9.192;2022-07-06T08:41:56;24.20;50.70
45645;DHT22;31359;48.784;9.192;2022-07-06T08:47:04;24.20;50.80
45645;DHT22;31359;48.784;9.192;2022-07-06T08:52:07;24.10;51.00
45645;DHT22;31359;48.784;9.192;2022-07-06T08:57:10;24.00;51.20
45645;DHT22;31359;48.784;9.192;2022-07-06T09:02:13;24.10;51.00
45645;DHT22;31359;48.784;9.192;2022-07-06T09:07:15;24.20;51.00
45645;DHT22;31359;48.784;9.192;2022-07-06T09:12:38;24.20;50.90
45645;DHT22;31359;48.784;9.192;2022-07-06T09:17:41;24.30;50.90
45645;DHT22;31359;48.784;9.192;2022-07-06T09:22:43;24.30;50.80
45645;DHT22;31359;48.784;9.192;2022-07-06T09:27:47;24.30;50.80
45645;DHT22;31359;48.784;9.192;2022-07-06T09:32:52;24.30;50.80
45645;DHT22;31359;48.784;9.192;2022-07-06T09:38:04;24.20;50.90
45645;DHT22;31359;48.784;9.192;2022-07-06T09:48:13;24.20;51.00
45645;DHT22;31359;48.784;9.192;2022-07-06T09:53:17;24.20;51.10
45645;DHT22;31359;48.784;9.192;2022-07-06T09:58:19;24.20;50.90
45645;DHT22;31359;48.784;9.192;2022-07-06T10:03:41;24.30;50.90
45645;DHT22;31359;48.784;9.192;2022-07-06T10:08:44;24.30;51.00
45645;DHT22;31359;48.784;9.192;2022-07-06T10:13:48;24.30;50.80
45645;DHT22;31359;48.784;9.192;2022-07-06T10:18:52;24.30;50.50
45645;DHT22;31359;48.784;9.192;2022-07-06T10:23:57;24.20;50.40
45645;DHT22;31359;48.784;9.192;2022-07-06T10:29:05;24.20;50.50
45645;DHT22;31359;48.784;9.192;2022-07-06T10:34:12;24.10;50.40
45645;DHT22;31359;48.784;9.192;2022-07-06T10:39:14;24.20;50.70
45645;DHT22;31359;48.784;9.192;2022-07-06T10:44:44;24.20;50.30
45645;DHT22;31359;48.784;9.192;2022-07-06T10:49:49;24.10;48.70
45645;DHT22;31359;48.784;9.192;2022-07-06T10:55:00;23.70;47.50
45645;DHT22;31359;48.784;9.192;2022-07-06T11:00:04;23.60;46.60
45645;DHT22;31359;48.784;9.192;2022-07-06T11:05:41;23.60;48.10
45645;DHT22;31359;48.784;9.192;2022-07-06T11:11:13;23.60;47.80
45645;DHT22;31359;48.784;9.192;2022-07-06T11:16:18;23.60;47.50
45645;DHT22;31359;48.784;9.192;2022-07-06T11:21:22;23.60;47.50
45645;DHT22;31359;48.784;9.192;2022-07-06T11:26:25;23.40;47.40
45645;DHT22;31359;48.784;9.192;2022-07-06T11:31:28;23.50;48.60
45645;DHT22;31359;48.784;9.192;2022-07-06T11:36:30;23.70;47.30
45645;DHT22;31359;48.784;9.192;2022-07-06T11:41:38;23.70;47.60
45645;DHT22;31359;48.784;9.192;2022-07-06T11:46:40;23.90;47.50
45645;DHT22;31359;48.784;9.192;2022-07-06T11:51:42;24.00;48.50
45645;DHT22;31359;48.784;9.192;2022-07-06T11:56:50;24.00;46.40
45645;DHT22;31359;48.784;9.192;2022-07-06T12:02:03;23.90;46.60
45645;DHT22;31359;48.784;9.192;2022-07-06T12:07:09;23.90;47.30
45645;DHT22;31359;48.784;9.192;2022-07-06T12:12:13;23.80;47.10
45645;DHT22;31359;48.784;9.192;2022-07-06T12:17:15;23.70;46.90
45645;DHT22;31359;48.784;9.192;2022-07-06T12:22:25;23.70;47.10
45645;DHT22;31359;48.784;9.192;2022-07-06T12:27:27;23.70;46.40
45645;DHT22;31359;48.784;9.192;2022-07-06T12:32:29;23.90;46.90
45645;DHT22;31359;48.784;9.192;2022-07-06T12:37:30;23.90;46.30
45645;DHT22;31359;48.784;9.192;2022-07-06T12:42:32;23.70;46.10
45645;DHT22;31359;48.784;9.192;2022-07-06T12:47:34;23.90;47.70
45645;DHT22;31359;48.784;9.192;2022-07-06T12:52:37;24.20;47.70
45645;DHT22;31359;48.784;9.192;2022-07-06T12:57:44;24.40;48.00
45645;DHT22;31359;48.784;9.192;2022-07-06T13:02:48;24.20;47.80
45645;DHT22;31359;48.784;9.192;2022-07-06T13:08:11;24.10;48.10
45645;DHT22;31359;48.784;9.192;2022-07-06T13:13:14;24.10;48.30
45645;DHT22;31359;48.784;9.192;2022-07-06T13:18:15;24.20;48.80
45645;DHT22;31359;48.784;9.192;2022-07-06T13:23:20;24.20;48.30
45645;DHT22;31359;48.784;9.192;2022-07-06T13:28:22;24.20;48.40
45645;DHT22;31359;48.784;9.192;2022-07-06T13:33:24;24.20;48.30
45645;DHT22;31359;48.784;9.192;2022-07-06T13:38:26;24.20;48.50
45645;DHT22;31359;48.784;9.192;2022-07-06T13:43:28;24.20;48.60
45645;DHT22;31359;48.784;9.192;2022-07-06T13:48:37;24.20;48.50
45645;DHT22;31359;48.784;9.192;2022-07-06T13:53:39;24.10;48.50
45645;DHT22;31359;48.784;9.192;2022-07-06T13:58:41;24.00;48.90
45645;DHT22;31359;48.784;9.192;2022-07-06T14:03:43;24.00;49.20
45645;DHT22;31359;48.784;9.192;2022-07-06T14:08:45;23.90;49.30
45645;DHT22;31359;48.784;9.192;2022-07-06T14:13:47;24.00;49.10
45645;DHT22;31359;48.784;9.192;2022-07-06T14:18:49;24.20;48.80
45645;DHT22;31359;48.784;9.192;2022-07-06T14:23:51;24.30;48.50
45645;DHT22;31359;48.784;9.192;2022-07-06T14:28:52;24.40;48.30
45645;DHT22;31359;48.784;9.192;2022-07-06T14:33:54;24.40;47.80
45645;DHT22;31359;48.784;9.192;2022-07-06T14:38:56;24.40;47.90
45645;DHT22;31359;48.784;9.192;2022-07-06T14:43:57;24.40;48.70
45645;DHT22;31359;48.784;9.192;2022-07-06T14:48:59;24.60;49.40
45645;DHT22;31359;48.784;9.192;2022-07-06T14:54:01;24.50;48.20
45645;DHT22;31359;48.784;9.192;2022-07-06T14:59:03;24.50;48.10
45645;DHT22;31359;48.784;9.192;2022-07-06T15:04:25;24.40;47.90
45645;DHT22;31359;48.784;9.192;2022-07-06T15:09:27;24.40;48.00
45645;DHT22;31359;48.784;9.192;2022-07-06T15:14:30;24.40;47.70
45645;DHT22;31359;48.784;9.192;2022-07-06T15:19:32;24.40;47.80
45645;DHT22;31359;48.784;9.192;2022-07-06T15:24:34;24.40;47.90
45645;DHT22;31359;48.784;9.192;2022-07-06T15:29:36;24.40;48.00
45645;DHT22;31359;48.784;9.192;2022-07-06T15:34:37;24.20;48.20
45645;DHT22;31359;48.784;9.192;2022-07-06T15:39:39;24.20;48.40
45645;DHT22;31359;48.784;9.192;2022-07-06T15:44:41;24.30;48.50
45645;DHT22;31359;48.784;9.192;2022-07-06T15:49:43;24.30;48.60
45645;DHT22;31359;48.784;9.192;2022-07-06T15:54:48;24.30;48.80
45645;DHT22;31359;48.784;9.192;2022-07-06T15:59:50;24.30;48.90
45645;DHT22;31359;48.784;9.192;2022-07-06T16:04:52;24.30;49.00
45645;DHT22;31359;48.784;9.192;2022-07-06T16:09:53;24.30;48.80
45645;DHT22;31359;48.784;9.192;2022-07-06T16:14:55;24.30;48.80
45645;DHT22;31359;48.784;9.192;2022-07-06T16:19:57;24.30;48.90
45645;DHT22;31359;48.784;9.192;2022-07-06T16:24:59;24.30;48.90
45645;DHT22;31359;48.784;9.192;2022-07-06T16:30:08;24.40;49.10
45645;DHT22;31359;48.784;9.192;2022-07-06T16:35:10;24.30;49.40
45645;DHT22;31359;48.784;9.192;2022-07-06T16:40:12;24.40;49.50
45645;DHT22;31359;48.784;9.192;2022-07-06T16:45:14;24.30;49.70
45645;DHT22;31359;48.784;9.192;2022-07-06T16:50:15;24.40;50.20
45645;DHT22;31359;48.784;9.192;2022-07-06T16:55:17;24.40;50.50
45645;DHT22;31359;48.784;9.192;2022-07-06T17:00:19;24.30;50.90
45645;DHT22;31359;48.784;9.192;2022-07-06T17:05:22;24.20;51.30
45645;DHT22;31359;48.784;9.192;2022-07-06T17:10:23;24.30;51.30
45645;DHT22;31359;48.784;9.192;2022-07-06T17:15:25;24.30;51.20
45645;DHT22;31359;48.784;9.192;2022-07-06T17:20:27;24.40;51.30
45645;DHT22;31359;48.784;9.192;2022-07-06T17:25:29;24.40;51.50
45645;DHT22;31359;48.784;9.192;2022-07-06T17:30:30;24.40;51.20
45645;DHT22;31359;48.784;9.192;2022-07-06T17:35:34;24.40;51.50
45645;DHT22;31359;48.784;9.192;2022-07-06T17:40:36;24.30;50.50
45645;DHT22;31359;48.784;9.192;2022-07-06T17:45:38;24.40;50.50
45645;DHT22;31359;48.784;9.192;2022-07-06T17:50:40;24.30;49.90
45645;DHT22;31359;48.784;9.192;2022-07-06T17:55:41;24.20;49.80
45645;DHT22;31359;48.784;9.192;2022-07-06T18:00:45;24.20;49.50
45645;DHT22;31359;48.784;9.192;2022-07-06T18:05:47;24.20;49.20
45645;DHT22;31359;48.784;9.192;2022-07-06T18:10:50;24.20;48.80
45645;DHT22;31359;48.784;9.192;2022-07-06T18:15:51;24.30;48.60
45645;DHT22;31359;48.784;9.192;2022-07-06T18:20:54;24.30;47.70
45645;DHT22;31359;48.784;9.192;2022-07-06T18:25:57;24.30;46.80
45645;DHT22;31359;48.784;9.192;2022-07-06T18:31:02;24.30;46.40
45645;DHT22;31359;48.784;9.192;2022-07-06T18:36:04;24.20;46.10
45645;DHT22;31359;48.784;9.192;2022-07-06T18:41:06;24.30;46.60
45645;DHT22;31359;48.784;9.192;2022-07-06T18:46:08;24.30;46.60
45645;DHT22;31359;48.784;9.192;2022-07-06T18:51:10;24.20;46.80
45645;DHT22;31359;48.784;9.192;2022-07-06T18:56:12;24.20;46.10
45645;DHT22;31359;48.784;9.192;2022-07-06T19:01:14;24.20;45.80
45645;DHT22;31359;48.784;9.192;2022-07-06T19:06:17;24.20;45.50
45645;DHT22;31359;48.784;9.192;2022-07-06T19:11:20;24.20;45.80
45645;DHT22;31359;48.784;9.192;2022-07-06T19:16:22;24.10;46.40
45645;DHT22;31359;48.784;9.192;2022-07-06T19:21:24;24.00;46.50
45645;DHT22;31359;48.784;9.192;2022-07-06T19:26:26;24.00;45.80
45645;DHT22;31359;48.784;9.192;2022-07-06T19:31:28;24.00;45.70
45645;DHT22;31359;48.784;9.192;2022-07-06T19:36:31;24.00;45.40
45645;DHT22;31359;48.784;9.192;2022-07-06T19:41:33;24.00;45.50
45645;DHT22;31359;48.784;9.192;2022-07-06T19:46:34;24.30;46.40
45645;DHT22;31359;48.784;9.192;2022-07-06T19:51:36;24.40;47.40
45645;DHT22;31359;48.784;9.192;2022-07-06T19:56:38;24.60;48.00
45645;DHT22;31359;48.784;9.192;2022-07-06T20:01:41;24.60;47.60
45645;DHT22;31359;48.784;9.192;2022-07-06T20:06:44;24.40;47.00
45645;DHT22;31359;48.784;9.192;2022-07-06T20:11:46;24.40;47.30
45645;DHT22;31359;48.784;9.192;2022-07-06T20:16:50;24.30;47.00
45645;DHT22;31359;48.784;9.192;2022-07-06T20:21:56;24.20;47.60
45645;DHT22;31359;48.784;9.192;2022-07-06T20:26:58;24.20;48.00
45645;DHT22;31359;48.784;9.192;2022-07-06T20:32:06;24.20;47.40
45645;DHT22;31359;48.784;9.192;2022-07-06T20:37:09;24.20;46.70
45645;DHT22;31359;48.784;9.192;2022-07-06T20:42:11;24.30;47.60
45645;DHT22;31359;48.784;9.192;2022-07-06T20:47:14;24.30;49.00
45645;DHT22;31359;48.784;9.192;2022-07-06T20:52:16;24.30;49.20
45645;DHT22;31359;48.784;9.192;2022-07-06T20:57:18;24.30;49.30
45645;DHT22;31359;48.784;9.192;2022-07-06T21:02:20;24.30;49.50
45645;DHT22;31359;48.784;9.192;2022-07-06T21:07:22;24.20;49.70
45645;DHT22;31359;48.784;9.192;2022-07-06T21:12:24;24.10;50.30
45645;DHT22;31359;48.784;9.192;2022-07-06T21:17:25;24.10;49.80
45645;DHT22;31359;48.784;9.192;2022-07-06T21:22:28;24.10;49.60
45645;DHT22;31359;48.784;9.192;2022-07-06T21:27:29;24.20;49.60
45645;DHT22;31359;48.784;9.192;2022-07-06T21:32:31;24.20;49.70
45645;DHT22;31359;48.784;9.192;2022-07-06T21:37:33;24.20;49.50
45645;DHT22;31359;48.784;9.192;2022-07-06T21:42:35;24.20;49.40
45645;DHT22;31359;48.784;9.192;2022-07-06T21:47:36;24.20;49.30
45645;DHT22;31359;48.784;9.192;2022-07-06T21:52:38;24.20;49.10
45645;DHT22;31359;48.784;9.192;2022-07-06T21:57:40;24.10;49.20
45645;DHT22;31359;48.784;9.192;2022-07-06T22:02:42;23.90;49.50
45645;DHT22;31359;48.784;9.192;2022-07-06T22:07:44;24.00;49.50
45645;DHT22;31359;48.784;9.192;2022-07-06T22:12:46;24.00;49.10
45645;DHT22;31359;48.784;9.192;2022-07-06T22:17:48;24.10;49.20
45645;DHT22;31359;48.784;9.192;2022-07-06T22:22:50;24.10;48.90
45645;DHT22;31359;48.784;9.192;2022-07-06T22:27:52;24.10;48.70
45645;DHT22;31359;48.784;9.192;2022-07-06T22:32:53;24.10;48.80
45645;DHT22;31359;48.784;9.192;2022-07-06T22:37:55;24.10;48.60
45645;DHT22;31359;48.784;9.192;2022-07-06T22:42:57;24.00;48.60
45645;DHT22;31359;48.784;9.192;2022-07-06T22:48:00;23.90;48.80
45645;DHT22;31359;48.784;9.192;2022-07-06T22:53:02;23.90;49.10
45645;DHT22;31359;48.784;9.192;2022-07-06T22:58:03;23.90;48.80
45645;DHT22;31359;48.784;9.192;2022-07-06T23:03:05;24.00;48.60
45645;DHT22;31359;48.784;9.192;2022-07-06T23:08:07;24.00;48.60
45645;DHT22;31359;48.784;9.192;2022-07-06T23:13:10;24.00;48.50
45645;DHT22;31359;48.784;9.192;2022-07-06T23:18:11;24.00;48.50
45645;DHT22;31359;48.784;9.192;2022-07-06T23:23:13;24.00;48.40
45645;DHT22;31359;48.784;9.192;2022-07-06T23:28:15;24.00;48.40
45645;DHT22;31359;48.784;9.192;2022-07-06T23:33:17;23.90;48.30
45645;DHT22;31359;48.784;9.192;2022-07-06T23:38:19;23.80;48.50
45645;DHT22;31359;48.784;9.192;2022-07-06T23:43:20;23.90;48.50
45645;DHT22;31359;48.784;9.192;2022-07-06T23:48:22;23.90;48.30
45645;DHT22;31359;48.784;9.192;2022-07-06T23:53:24;23.90;48.10
45645;DHT22;31359;48.784;9.192;2022-07-06T23:58:26;23.90;48.00
